createdAt,value
2023-02-16T00:01:36.190Z,102245.34
2023-02-16T00:06:42.697Z,102252.56
2023-02-16T00:12:08.428Z,102255.25
2023-02-16T00:17:11.277Z,102241.91
2023-02-16T00:22:13.082Z,102246.91
2023-02-16T00:27:19.010Z,102236.53
2023-02-16T00:32:20.792Z,102240.56
2023-02-16T00:37:22.616Z,102238.34
2023-02-16T00:42:29.116Z,102241.97
2023-02-16T00:47:37.990Z,102251.19
2023-02-16T00:52:46.612Z,102253.09
2023-02-16T00:57:56.624Z,102241.13
2023-02-16T01:03:00.478Z,102232.41
2023-02-16T01:08:34.257Z,102247.38
2023-02-16T01:13:44.467Z,102237.19
2023-02-16T01:18:46.892Z,102228.75
2023-02-16T01:23:50.916Z,102233.50
2023-02-16T01:28:57.522Z,102229.56
2023-02-16T01:33:59.324Z,102227.16
2023-02-16T01:39:01.716Z,102225.56
2023-02-16T01:44:07.986Z,102225.25
2023-02-16T01:49:19.158Z,102227.66
2023-02-16T01:54:29.320Z,102226.72
2023-02-16T01:59:42.204Z,102217.06
2023-02-16T02:05:10.657Z,102219.81
2023-02-16T02:10:35.212Z,102221.22
2023-02-16T02:15:37.183Z,102207.53
2023-02-16T02:21:27.762Z,102205.75
2023-02-16T02:26:57.188Z,102196.53
2023-02-16T02:32:35.958Z,102192.50
2023-02-16T02:37:56.743Z,102175.25
2023-02-16T02:43:04.175Z,102183.38
2023-02-16T02:48:06.356Z,102179.16
2023-02-16T02:53:18.283Z,102166.00
2023-02-16T02:58:41.740Z,102156.41
2023-02-16T03:03:50.927Z,102162.31
2023-02-16T03:09:00.069Z,102162.75
2023-02-16T03:14:04.510Z,102147.72
2023-02-16T03:19:31.140Z,102143.34
2023-02-16T03:24:51.979Z,102151.31
2023-02-16T03:29:55.270Z,102152.38
2023-02-16T03:35:00.723Z,102144.09
2023-02-16T03:40:25.496Z,102156.16
2023-02-16T03:45:28.178Z,102172.53
2023-02-16T03:50:30.239Z,102164.06
2023-02-16T03:55:36.847Z,102158.56
2023-02-16T04:00:39.267Z,102169.88
2023-02-16T04:05:46.401Z,102163.00
2023-02-16T04:10:54.282Z,102170.94
2023-02-16T04:15:59.959Z,102155.50
2023-02-16T04:21:04.292Z,102168.97
2023-02-16T04:26:06.409Z,102157.94
2023-02-16T04:31:08.358Z,102153.75
2023-02-16T04:36:14.840Z,102142.72
2023-02-16T04:41:19.038Z,102139.53
2023-02-16T04:46:20.831Z,102126.75
2023-02-16T04:51:23.582Z,102131.50
2023-02-16T04:56:28.218Z,102138.91
2023-02-16T05:01:34.767Z,102125.44
2023-02-16T05:06:46.281Z,102125.00
2023-02-16T05:12:06.738Z,102116.63
2023-02-16T05:17:22.845Z,102121.72
2023-02-16T05:22:25.176Z,102114.25
2023-02-16T05:27:29.388Z,102109.38
2023-02-16T05:32:33.481Z,102116.28
2023-02-16T05:37:42.451Z,102123.66
2023-02-16T05:42:46.823Z,102118.03
2023-02-16T05:47:53.156Z,102118.56
2023-02-16T05:53:00.006Z,102122.97
2023-02-16T05:58:06.141Z,102109.25
2023-02-16T06:03:07.818Z,102127.84
2023-02-16T06:08:14.758Z,102123.44
2023-02-16T06:13:19.670Z,102115.47
2023-02-16T06:18:24.331Z,102115.81
2023-02-16T06:23:33.036Z,102114.38
2023-02-16T06:28:37.004Z,102122.34
2023-02-16T06:33:43.539Z,102109.78
2023-02-16T06:38:45.671Z,102115.81
2023-02-16T06:43:47.409Z,102122.84
2023-02-16T06:48:51.423Z,102124.31
2023-02-16T06:53:58.523Z,102109.84
2023-02-16T06:59:00.228Z,102123.72
2023-02-16T07:04:06.961Z,102103.13
2023-02-16T07:09:10.597Z,102114.47
2023-02-16T07:14:16.757Z,102111.56
2023-02-16T07:19:18.482Z,102110.38
2023-02-16T07:24:21.201Z,102110.09
2023-02-16T07:29:23.457Z,102117.09
2023-02-16T07:34:25.387Z,102119.84
2023-02-16T07:39:29.031Z,102107.66
2023-02-16T07:44:33.317Z,102102.09
2023-02-16T07:49:37.122Z,102143.44
2023-02-16T07:54:39.997Z,102132.72
2023-02-16T07:59:45.281Z,102133.34
2023-02-16T08:04:52.780Z,102127.34
2023-02-16T08:09:57.257Z,102132.03
2023-02-16T08:15:03.463Z,102120.84
2023-02-16T08:20:09.829Z,102124.59
2023-02-16T08:25:11.773Z,102138.13
2023-02-16T08:30:18.301Z,102132.84
2023-02-16T08:35:22.293Z,102141.66
2023-02-16T08:40:24.852Z,102142.63
2023-02-16T08:45:30.231Z,102146.97
2023-02-16T08:50:36.909Z,102153.41
2023-02-16T08:55:42.080Z,102167.06
2023-02-16T09:00:45.838Z,102168.13
2023-02-16T09:05:52.784Z,102177.69
2023-02-16T09:10:55.508Z,102159.16
2023-02-16T09:16:06.101Z,102158.78
2023-02-16T09:21:18.517Z,102154.53
2023-02-16T09:26:23.197Z,102160.81
2023-02-16T09:31:30.922Z,102172.78
2023-02-16T09:36:32.787Z,102169.13
2023-02-16T09:41:41.075Z,102168.53
2023-02-16T09:46:42.939Z,102173.31
2023-02-16T09:51:50.138Z,102167.72
2023-02-16T09:56:59.817Z,102171.69
2023-02-16T10:02:23.216Z,102181.94
2023-02-16T10:07:43.853Z,102189.16
2023-02-16T10:13:00.954Z,102185.13
2023-02-16T10:18:12.893Z,102196.03
2023-02-16T10:23:29.882Z,102184.94
2023-02-16T10:28:34.912Z,102186.50
2023-02-16T10:33:44.035Z,102191.31
2023-02-16T10:38:48.232Z,102195.94
2023-02-16T10:44:07.384Z,102189.25
2023-02-16T10:49:12.825Z,102192.88
2023-02-16T10:54:23.056Z,102189.63
2023-02-16T10:59:30.544Z,102194.94
2023-02-16T11:04:41.493Z,102184.50
2023-02-16T11:09:48.589Z,102188.72
2023-02-16T11:14:58.204Z,102199.66
2023-02-16T11:20:05.743Z,102185.09
2023-02-16T11:25:28.174Z,102184.09
2023-02-16T11:30:32.263Z,102179.28
2023-02-16T11:35:42.980Z,102189.69
2023-02-16T11:40:51.286Z,102182.47
2023-02-16T11:46:02.482Z,102184.25
2023-02-16T11:51:09.313Z,102181.34
2023-02-16T11:56:27.369Z,102182.72
2023-02-16T12:01:47.835Z,102170.81
2023-02-16T12:07:03.586Z,102160.34
2023-02-16T12:12:30.316Z,102164.53
2023-02-16T12:17:54.950Z,102146.66
2023-02-16T12:23:09.325Z,102149.09
2023-02-16T12:28:20.369Z,102131.31
2023-02-16T12:33:37.663Z,102123.50
2023-02-16T12:39:19.176Z,102110.59
2023-02-16T12:44:37.443Z,102094.13
2023-02-16T12:49:47.703Z,102087.53
2023-02-16T12:54:53.059Z,102104.56
2023-02-16T13:00:03.908Z,102084.47
2023-02-16T13:05:16.974Z,102087.97
2023-02-16T13:10:35.587Z,102066.28
2023-02-16T13:15:41.820Z,102090.22
2023-02-16T13:20:52.801Z,102085.72
2023-02-16T13:26:42.429Z,102078.81
2023-02-16T13:37:16.202Z,102091.09
2023-02-16T13:42:30.062Z,102090.38
2023-02-16T13:47:34.290Z,102092.91
2023-02-16T13:52:45.463Z,102090.66
2023-02-16T13:57:52.083Z,102078.47
2023-02-16T14:03:17.699Z,102061.91
2023-02-16T14:08:28.069Z,102067.50
2023-02-16T14:13:33.842Z,102060.03
2023-02-16T14:19:00.332Z,102069.63
2023-02-16T14:24:03.288Z,102077.88
2023-02-16T14:29:20.379Z,102064.94
2023-02-16T14:34:31.507Z,102060.56
2023-02-16T14:39:34.971Z,102066.75
2023-02-16T14:45:10.385Z,102065.25
2023-02-16T14:50:28.568Z,102063.59
2023-02-16T14:55:55.216Z,102045.22
2023-02-16T15:01:04.288Z,102041.25
2023-02-16T15:06:06.803Z,102025.97
2023-02-16T15:11:14.041Z,102025.25
2023-02-16T15:16:16.666Z,102017.09
2023-02-16T15:21:22.564Z,102023.72
2023-02-16T15:26:29.636Z,102037.41
2023-02-16T15:31:37.129Z,102035.03
2023-02-16T15:36:43.822Z,102043.44
2023-02-16T15:41:51.912Z,102042.03
2023-02-16T15:47:16.580Z,102039.06
2023-02-16T15:52:26.265Z,102034.41
2023-02-16T15:57:36.693Z,102037.34
2023-02-16T16:02:43.737Z,102023.44
2023-02-16T16:07:48.767Z,102020.81
2023-02-16T16:12:56.477Z,102023.06
2023-02-16T16:18:00.918Z,102010.66
2023-02-16T16:23:04.574Z,102007.09
2023-02-16T16:28:14.030Z,101996.78
2023-02-16T16:33:16.216Z,102004.63
2023-02-16T16:38:30.314Z,102000.97
2023-02-16T16:43:38.669Z,101999.94
2023-02-16T16:49:03.274Z,101980.84
2023-02-16T16:54:36.814Z,101969.75
2023-02-16T16:59:39.500Z,101964.13
2023-02-16T17:04:46.067Z,101962.81
2023-02-16T17:09:50.072Z,101959.59
2023-02-16T17:14:52.343Z,101966.03
2023-02-16T17:20:01.388Z,101969.66
2023-02-16T17:25:03.288Z,101973.63
2023-02-16T17:30:07.720Z,101965.38
2023-02-16T17:35:11.696Z,101959.44
2023-02-16T17:40:19.594Z,101951.16
2023-02-16T17:45:24.636Z,101959.13
2023-02-16T17:50:26.505Z,101942.47
2023-02-16T17:55:28.355Z,101941.38
2023-02-16T18:00:31.102Z,101937.00
2023-02-16T18:05:38.597Z,101928.47
2023-02-16T18:10:46.679Z,101929.56
2023-02-16T18:15:52.346Z,101931.66
2023-02-16T18:20:57.836Z,101919.31
2023-02-16T18:25:59.621Z,101922.97
2023-02-16T18:31:01.901Z,101912.97
2023-02-16T18:36:05.483Z,101901.19
2023-02-16T18:41:08.280Z,101896.38
2023-02-16T18:46:10.758Z,101888.69
2023-02-16T18:51:16.488Z,101894.13
2023-02-16T18:56:19.221Z,101883.47
2023-02-16T19:01:30.324Z,101878.16
2023-02-16T19:06:34.379Z,101877.19
2023-02-16T19:11:39.365Z,101858.56
2023-02-16T19:16:41.179Z,101866.56
2023-02-16T19:21:47.516Z,101861.94
2023-02-16T19:26:50.192Z,101859.13
2023-02-16T19:31:51.990Z,101846.66
2023-02-16T19:36:54.041Z,101847.25
2023-02-16T19:41:58.308Z,101831.28
2023-02-16T19:47:03.256Z,101836.34
2023-02-16T19:52:05.499Z,101828.06
2023-02-16T19:57:09.455Z,101832.28
2023-02-16T20:02:15.459Z,101824.88
2023-02-16T20:07:17.247Z,101814.06
2023-02-16T20:12:21.031Z,101812.81
2023-02-16T20:17:25.914Z,101806.53
2023-02-16T20:22:28.786Z,101802.75
2023-02-16T20:27:35.595Z,101801.63
2023-02-16T20:32:37.504Z,101798.72
2023-02-16T20:37:41.629Z,101788.06
2023-02-16T20:42:48.841Z,101772.75
2023-02-16T20:47:50.536Z,101756.66
2023-02-16T20:52:54.609Z,101750.22
2023-02-16T20:57:58.906Z,101745.72
2023-02-16T21:03:00.704Z,101731.84
2023-02-16T21:08:04.763Z,101717.44
2023-02-16T21:13:06.678Z,101717.84
2023-02-16T21:18:11.111Z,101723.72
2023-02-16T21:23:17.607Z,101728.06
2023-02-16T21:28:20.407Z,101723.13
2023-02-16T21:33:22.483Z,101722.03
2023-02-16T21:38:24.493Z,101733.25
2023-02-16T21:43:30.313Z,101735.47
2023-02-16T21:48:45.288Z,101714.84
2023-02-16T21:53:48.354Z,101710.22
2023-02-16T21:58:51.134Z,101709.78
2023-02-16T22:03:59.349Z,101692.69
2023-02-16T22:09:05.890Z,101697.59
2023-02-16T22:14:10.949Z,101700.94
2023-02-16T22:19:18.619Z,101697.00
2023-02-16T22:24:20.511Z,101694.06
2023-02-16T22:29:22.229Z,101697.56
2023-02-16T22:34:26.416Z,101690.97
2023-02-16T22:39:31.597Z,101685.31
2023-02-16T22:44:35.511Z,101677.06
2023-02-16T22:49:44.069Z,101668.06
2023-02-16T22:54:48.127Z,101647.56
2023-02-16T22:59:51.016Z,101654.59
2023-02-16T23:04:58.725Z,101634.94
2023-02-16T23:10:00.764Z,101621.47
2023-02-16T23:15:03.737Z,101640.00
2023-02-16T23:20:09.491Z,101635.34
2023-02-16T23:25:29.825Z,101633.38
2023-02-16T23:30:31.639Z,101627.19
2023-02-16T23:35:37.843Z,101628.75
2023-02-16T23:40:44.214Z,101619.03
2023-02-16T23:45:51.337Z,101627.59
2023-02-16T23:50:56.064Z,101616.75
2023-02-16T23:56:02.818Z,101613.13
